Wetterdaten: Woche 21.09.15 - 27.09.15 (KW39)
Datum Zeit Temp. Aussen Temp. o. S. +5cm Feuchte Auss BlattFeu 1 Luftdruck Regen Sonnenschein Regendauer Solar Windben Empfang
21.09.2015 00:00 12,8 C 12,8 C 11,7 C 88 % 0 lf 1021,1 hPa 0,0 l/m 0,00 h 0,00 h 0 W/m 8,6 km/h (2 Bft) 93,77 %
21.09.2015 01:00 12,7 C 12,8 C 11,7 C 88 % 0 lf 1020,6 hPa 0,0 l/m 0,00 h 0,00 h 0 W/m 9,2 km/h (2 Bft) 97,22 %
21.09.2015 02:00 12,3 C 11,7 C 10,7 C 89 % 0 lf 1020,1 hPa 0,0 l/m 0,00 h 0,00 h 0 W/m 8,3 km/h (2 Bft) 95,95 %
21.09.2015 03:00 11,4 C 10,7 C 9,7 C 89 % 0 lf 1019,6 hPa 0,0 l/m 0,00 h 0,00 h 0 W/m 8,6 km/h (2 Bft) 94,80 %
21.09.2015 04:00 10,5 C 9,9 C 8,9 C 90 % 1 lf 1019,1 hPa 0,0 l/m 0,00 h 0,00 h 0 W/m 6,7 km/h (2 Bft) 98,57 %
21.09.2015 05:00 10,0 C 9,4 C 8,4 C 92 % 1 lf 1018,6 hPa 0,0 l/m 0,00 h 0,00 h 0 W/m 7,4 km/h (2 Bft) 95,23 %
21.09.2015 06:00 9,6 C 9,4 C 8,2 C 93 % 1 lf 1018,3 hPa 0,0 l/m 0,00 h 0,00 h 0 W/m 8,5 km/h (2 Bft) 96,58 %
21.09.2015 07:00 9,3 C 9,0 C 7,8 C 94 % 1 lf 1018,2 hPa 0,0 l/m 0,13 h 0,00 h 18 W/m 6,1 km/h (2 Bft) 95,94 %
21.09.2015 08:00 9,4 C 11,1 C 8,9 C 95 % 0 lf 1018,0 hPa 0,0 l/m 0,90 h 0,00 h 115 W/m 7,4 km/h (2 Bft) 94,87 %
21.09.2015 09:00 11,8 C 20,3 C 13,6 C 94 % 0 lf 1017,7 hPa 0,0 l/m 1,00 h 0,00 h 294 W/m 10,5 km/h (2 Bft) 98,07 %
21.09.2015 10:00 15,4 C 24,1 C 19,0 C 81 % 0 lf 1017,2 hPa 0,0 l/m 1,00 h 0,00 h 439 W/m 9,4 km/h (2 Bft) 96,87 %
21.09.2015 11:00 17,9 C 26,1 C 21,5 C 74 % 0 lf 1016,7 hPa 0,0 l/m 1,00 h 0,00 h 546 W/m 12,6 km/h (3 Bft) 94,59 %
21.09.2015 12:00 19,3 C 27,0 C 20,6 C 69 % 0 lf 1015,9 hPa 0,0 l/m 0,97 h 0,00 h 673 W/m 17,1 km/h (3 Bft) 97,53 %
21.09.2015 13:00 19,6 C 25,2 C 18,2 C 65 % 0 lf 1015,1 hPa 0,0 l/m 0,77 h 0,00 h 528 W/m 15,7 km/h (3 Bft) 95,02 %
21.09.2015 14:00 19,2 C 22,3 C 17,9 C 64 % 0 lf 1014,3 hPa 0,0 l/m 0,70 h 0,00 h 353 W/m 15,3 km/h (3 Bft) 97,01 %
21.09.2015 15:00 19,1 C 22,2 C 18,0 C 63 % 0 lf 1013,5 hPa 0,0 l/m 1,00 h 0,00 h 357 W/m 14,6 km/h (3 Bft) 96,44 %
21.09.2015 16:00 19,1 C 21,2 C 17,4 C 62 % 0 lf 1012,8 hPa 0,0 l/m 0,80 h 0,00 h 278 W/m 13,9 km/h (3 Bft) 94,38 %
21.09.2015 17:00 18,4 C 18,8 C 16,6 C 65 % 0 lf 1012,0 hPa 0,0 l/m 0,00 h 0,00 h 129 W/m 8,2 km/h (2 Bft) 98,51 %
21.09.2015 18:00 17,7 C 17,2 C 15,5 C 70 % 0 lf 1011,4 hPa 0,0 l/m 0,00 h 0,00 h 51 W/m 4,8 km/h (1 Bft) 95,80 %
21.09.2015 19:00 16,8 C 15,6 C 13,9 C 75 % 0 lf 1010,6 hPa 0,0 l/m 0,00 h 0,00 h 11 W/m 3,0 km/h (1 Bft) 95,51 %
21.09.2015 20:00 15,7 C 15,1 C 13,4 C 79 % 0 lf 1010,0 hPa 0,0 l/m 0,00 h 0,00 h 0 W/m 5,4 km/h (1 Bft) 96,51 %
21.09.2015 21:00 15,4 C 15,4 C 13,9 C 78 % 0 lf 1009,6 hPa 0,0 l/m 0,00 h 0,00 h 0 W/m 9,2 km/h (2 Bft) 96,22 %
21.09.2015 22:00 15,1 C 15,0 C 13,4 C 78 % 0 lf 1009,1 hPa 0,0 l/m 0,00 h 0,00 h 0 W/m 14,2 km/h (3 Bft) 96,37 %
21.09.2015 23:00 14,8 C 14,3 C 12,9 C 79 % 3 lf 1008,4 hPa 0,0 l/m 0,00 h 0,40 h 0 W/m 13,1 km/h (3 Bft) 96,58 %
22.09.2015 00:00 13,9 C 11,9 C 11,1 C 85 % 15 lf 1008,0 hPa 1,6 l/m 0,00 h 0,98 h 0 W/m 10,8 km/h (2 Bft) 95,49 %
22.09.2015 01:00 12,5 C 11,6 C 10,6 C 91 % 15 lf 1007,1 hPa 0,6 l/m 0,00 h 0,90 h 0 W/m 16,5 km/h (3 Bft) 97,36 %
22.09.2015 02:00 11,9 C 11,2 C 10,1 C 93 % 15 lf 1006,1 hPa 0,0 l/m 0,00 h 0,23 h 0 W/m 15,0 km/h (3 Bft) 96,94 %
22.09.2015 03:00 11,9 C 11,6 C 10,6 C 95 % 15 lf 1005,2 hPa 0,2 l/m 0,00 h 0,43 h 0 W/m 16,0 km/h (3 Bft) 94,73 %
22.09.2015 04:00 11,9 C 11,7 C 10,6 C 96 % 15 lf 1004,5 hPa 0,0 l/m 0,00 h 0,00 h 0 W/m 15,7 km/h (3 Bft) 97,28 %
22.09.2015 05:00 12,1 C 12,0 C 10,9 C 97 % 15 lf 1004,0 hPa 0,0 l/m 0,00 h 0,00 h 0 W/m 13,2 km/h (3 Bft) 96,44 %
22.09.2015 06:00 12,3 C 12,0 C 10,8 C 97 % 15 lf 1003,2 hPa 0,0 l/m 0,00 h 0,03 h 0 W/m 14,0 km/h (3 Bft) 97,51 %
22.09.2015 07:00 12,0 C 11,8 C 10,8 C 97 % 15 lf 1002,8 hPa 0,0 l/m 0,43 h 0,00 h 34 W/m 11,1 km/h (2 Bft) 94,52 %
22.09.2015 08:00 12,3 C 12,2 C 11,6 C 97 % 5 lf 1002,5 hPa 0,2 l/m 0,00 h 0,07 h 33 W/m 12,6 km/h (3 Bft) 96,58 %
22.09.2015 09:00 12,5 C 12,5 C 11,4 C 97 % 15 lf 1002,0 hPa 0,4 l/m 0,00 h 0,80 h 54 W/m 10,0 km/h (2 Bft) 96,30 %
22.09.2015 10:00 12,9 C 12,9 C 11,9 C 97 % 6 lf 1001,8 hPa 0,0 l/m 0,00 h 0,33 h 85 W/m 7,3 km/h (2 Bft) 97,94 %
22.09.2015 11:00 13,2 C 12,8 C 11,8 C 97 % 4 lf 1001,6 hPa 1,2 l/m 0,00 h 1,00 h 65 W/m 9,9 km/h (2 Bft) 93,81 %
22.09.2015 12:00 13,1 C 12,9 C 11,8 C 97 % 8 lf 1001,2 hPa 0,6 l/m 0,00 h 0,67 h 81 W/m 11,1 km/h (2 Bft) 96,53 %
22.09.2015 13:00 14,1 C 18,2 C 13,6 C 98 % 0 lf 1000,6 hPa 0,0 l/m 0,93 h 0,03 h 509 W/m 14,5 km/h (3 Bft) 96,90 %
22.09.2015 14:00 15,5 C 17,5 C 14,2 C 91 % 0 lf 999,8 hPa 0,0 l/m 0,43 h 0,00 h 272 W/m 16,4 km/h (3 Bft) 96,55 %
22.09.2015 15:00 15,4 C 16,0 C 13,9 C 87 % 0 lf 999,0 hPa 0,0 l/m 0,00 h 0,30 h 173 W/m 15,0 km/h (3 Bft) 94,30 %
22.09.2015 16:00 15,5 C 16,8 C 14,8 C 88 % 0 lf 998,5 hPa 0,0 l/m 0,10 h 0,03 h 156 W/m 11,3 km/h (2 Bft) 97,79 %
22.09.2015 17:00 14,9 C 13,8 C 12,4 C 84 % 11 lf 998,5 hPa 0,4 l/m 0,00 h 0,70 h 66 W/m 17,2 km/h (3 Bft) 96,80 %
22.09.2015 18:00 13,6 C 12,4 C 11,3 C 90 % 15 lf 998,5 hPa 0,6 l/m 0,00 h 0,47 h 35 W/m 13,8 km/h (3 Bft) 94,99 %
22.09.2015 19:00 12,2 C 11,1 C 10,3 C 91 % 14 lf 999,1 hPa 0,0 l/m 0,00 h 0,00 h 9 W/m 8,6 km/h (2 Bft) 95,37 %
22.09.2015 20:00 11,8 C 11,6 C 10,6 C 94 % 11 lf 999,6 hPa 0,0 l/m 0,00 h 0,17 h 0 W/m 11,0 km/h (2 Bft) 98,22 %
22.09.2015 21:00 11,7 C 11,2 C 10,0 C 95 % 3 lf 1000,1 hPa 0,0 l/m 0,00 h 0,00 h 0 W/m 18,2 km/h (3 Bft) 96,01 %
22.09.2015 22:00 10,9 C 10,6 C 9,3 C 94 % 1 lf 1000,5 hPa 0,0 l/m 0,00 h 0,00 h 0 W/m 12,2 km/h (2 Bft) 94,66 %
22.09.2015 23:00 10,4 C 10,0 C 8,9 C 94 % 1 lf 1001,0 hPa 0,0 l/m 0,00 h 0,00 h 0 W/m 10,3 km/h (2 Bft) 96,87 %
23.09.2015 00:00 10,0 C 9,7 C 8,6 C 94 % 1 lf 1001,4 hPa 0,0 l/m 0,00 h 0,03 h 0 W/m 9,5 km/h (2 Bft) 94,35 %
23.09.2015 01:00 10,0 C 10,0 C 8,9 C 95 % 1 lf 1001,7 hPa 0,0 l/m 0,00 h 0,03 h 0 W/m 12,7 km/h (3 Bft) 97,51 %
23.09.2015 02:00 10,3 C 10,0 C 9,1 C 96 % 11 lf 1002,0 hPa 2,4 l/m 0,00 h 0,80 h 0 W/m 13,5 km/h (3 Bft) 96,65 %
23.09.2015 03:00 10,3 C 10,0 C 9,3 C 97 % 15 lf 1002,4 hPa 2,2 l/m 0,00 h 1,00 h 0 W/m 11,9 km/h (2 Bft) 93,45 %
23.09.2015 04:00 10,4 C 10,1 C 9,4 C 97 % 15 lf 1002,9 hPa 1,4 l/m 0,00 h 0,63 h 0 W/m 13,1 km/h (3 Bft) 97,31 %
23.09.2015 05:00 10,4 C 10,4 C 9,4 C 97 % 15 lf 1003,5 hPa 0,0 l/m 0,00 h 0,00 h 0 W/m 14,2 km/h (3 Bft) 96,94 %
23.09.2015 06:00 10,5 C 10,6 C 9,4 C 98 % 15 lf 1004,1 hPa 0,2 l/m 0,00 h 0,33 h 0 W/m 14,3 km/h (3 Bft) 93,10 %
23.09.2015 07:00 10,8 C 10,6 C 9,9 C 98 % 15 lf 1004,5 hPa 0,0 l/m 0,00 h 0,07 h 12 W/m 13,3 km/h (3 Bft) 97,43 %
23.09.2015 08:00 11,2 C 11,6 C 10,3 C 98 % 15 lf 1004,9 hPa 0,0 l/m 0,17 h 0,00 h 72 W/m 16,1 km/h (3 Bft) 97,65 %
23.09.2015 09:00 11,8 C 12,3 C 10,9 C 99 % 14 lf 1005,5 hPa 0,0 l/m 0,13 h 0,03 h 86 W/m 17,8 km/h (3 Bft) 95,23 %
23.09.2015 10:00 12,1 C 12,7 C 11,1 C 98 % 3 lf 1006,2 hPa 0,0 l/m 0,00 h 0,00 h 79 W/m 16,7 km/h (3 Bft) 96,08 %
23.09.2015 11:00 12,9 C 14,6 C 12,0 C 98 % 0 lf 1006,8 hPa 0,0 l/m 0,00 h 0,00 h 164 W/m 17,0 km/h (3 Bft) 96,37 %
23.09.2015 12:00 14,6 C 20,0 C 15,1 C 95 % 0 lf 1007,5 hPa 0,0 l/m 0,37 h 0,00 h 317 W/m 16,4 km/h (3 Bft) 95,14 %
23.09.2015 13:00 16,7 C 20,6 C 15,5 C 84 % 3 lf 1007,9 hPa 1,0 l/m 0,40 h 0,23 h 328 W/m 18,0 km/h (3 Bft) 97,86 %
23.09.2015 14:00 15,3 C 15,1 C 13,5 C 91 % 14 lf 1008,5 hPa 0,2 l/m 0,17 h 0,30 h 206 W/m 14,1 km/h (3 Bft) 94,59 %
23.09.2015 15:00 15,9 C 19,5 C 14,2 C 91 % 1 lf 1008,9 hPa 0,0 l/m 0,67 h 0,00 h 377 W/m 18,2 km/h (3 Bft) 96,58 %
23.09.2015 16:00 16,7 C 18,4 C 14,4 C 88 % 0 lf 1009,4 hPa 0,0 l/m 0,40 h 0,13 h 231 W/m 19,4 km/h (3 Bft) 97,72 %
23.09.2015 17:00 15,9 C 16,5 C 14,1 C 89 % 2 lf 1010,4 hPa 0,0 l/m 0,20 h 0,20 h 105 W/m 18,5 km/h (3 Bft) 95,51 %
23.09.2015 18:00 14,8 C 13,9 C 12,6 C 92 % 15 lf 1011,5 hPa 0,6 l/m 0,00 h 0,67 h 25 W/m 17,1 km/h (3 Bft) 94,78 %
23.09.2015 19:00 13,4 C 12,5 C 11,7 C 94 % 15 lf 1012,4 hPa 1,2 l/m 0,00 h 0,97 h 6 W/m 17,3 km/h (3 Bft) 98,86 %
23.09.2015 20:00 12,8 C 12,2 C 11,7 C 95 % 15 lf 1013,2 hPa 0,2 l/m 0,00 h 0,13 h 0 W/m 7,6 km/h (2 Bft) 95,66 %
23.09.2015 21:00 12,8 C 12,5 C 11,7 C 96 % 15 lf 1014,1 hPa 0,0 l/m 0,00 h 0,00 h 0 W/m 11,2 km/h (2 Bft) 95,72 %
23.09.2015 22:00 12,6 C 12,1 C 11,2 C 97 % 15 lf 1014,7 hPa 0,0 l/m 0,00 h 0,00 h 0 W/m 12,3 km/h (3 Bft) 97,22 %
23.09.2015 23:00 11,9 C 11,1 C 10,0 C 97 % 15 lf 1014,9 hPa 0,0 l/m 0,00 h 0,00 h 0 W/m 8,4 km/h (2 Bft) 95,09 %
24.09.2015 00:00 11,2 C 10,7 C 9,5 C 96 % 15 lf 1015,1 hPa 0,0 l/m 0,00 h 0,03 h 0 W/m 9,2 km/h (2 Bft) 97,85 %
24.09.2015 01:00 10,7 C 10,4 C 9,4 C 97 % 15 lf 1015,2 hPa 0,0 l/m 0,00 h 0,00 h 0 W/m 10,1 km/h (2 Bft) 95,66 %
24.09.2015 02:00 10,4 C 9,9 C 8,9 C 97 % 15 lf 1015,3 hPa 0,0 l/m 0,00 h 0,00 h 0 W/m 9,6 km/h (2 Bft) 94,52 %
24.09.2015 03:00 10,2 C 9,9 C 9,1 C 97 % 15 lf 1015,4 hPa 0,0 l/m 0,00 h 0,00 h 0 W/m 10,8 km/h (2 Bft) 97,30 %
24.09.2015 04:00 10,3 C 10,5 C 9,4 C 97 % 15 lf 1015,4 hPa 0,0 l/m 0,00 h 0,00 h 0 W/m 11,4 km/h (2 Bft) 98,14 %
24.09.2015 05:00 10,4 C 10,1 C 8,9 C 97 % 15 lf 1015,4 hPa 0,0 l/m 0,00 h 0,00 h 0 W/m 11,9 km/h (2 Bft) 93,73 %
24.09.2015 06:00 10,3 C 10,0 C 8,9 C 97 % 15 lf 1015,3 hPa 0,0 l/m 0,00 h 0,00 h 0 W/m 10,6 km/h (2 Bft) 98,15 %
24.09.2015 07:00 10,2 C 10,3 C 8,9 C 97 % 15 lf 1015,6 hPa 0,0 l/m 0,00 h 0,00 h 12 W/m 13,3 km/h (3 Bft) 96,58 %
24.09.2015 08:00 10,4 C 11,2 C 9,3 C 97 % 10 lf 1016,0 hPa 0,0 l/m 0,17 h 0,00 h 61 W/m 16,4 km/h (3 Bft) 96,99 %
24.09.2015 09:00 11,7 C 13,9 C 11,5 C 95 % 0 lf 1016,2 hPa 0,0 l/m 0,43 h 0,00 h 175 W/m 20,0 km/h (4 Bft) 95,23 %
24.09.2015 10:00 13,0 C 14,6 C 12,8 C 91 % 0 lf 1016,4 hPa 0,0 l/m 0,20 h 0,00 h 171 W/m 18,5 km/h (3 Bft) 96,57 %
24.09.2015 11:00 14,0 C 15,1 C 13,5 C 87 % 0 lf 1016,5 hPa 0,2 l/m 0,00 h 0,00 h 158 W/m 17,8 km/h (3 Bft) 96,15 %
24.09.2015 12:00 14,9 C 16,3 C 14,5 C 84 % 0 lf 1016,5 hPa 0,0 l/m 0,00 h 0,00 h 187 W/m 17,9 km/h (3 Bft) 96,02 %
24.09.2015 13:00 16,1 C 18,5 C 16,0 C 79 % 0 lf 1016,5 hPa 0,0 l/m 0,17 h 0,00 h 294 W/m 19,6 km/h (3 Bft) 94,19 %
24.09.2015 14:00 18,1 C 22,7 C 17,1 C 71 % 0 lf 1016,3 hPa 0,0 l/m 1,00 h 0,00 h 500 W/m 25,9 km/h (4 Bft) 96,59 %
24.09.2015 15:00 18,5 C 20,6 C 17,2 C 66 % 0 lf 1016,0 hPa 0,0 l/m 0,70 h 0,00 h 295 W/m 24,5 km/h (4 Bft) 96,80 %
24.09.2015 16:00 17,9 C 18,3 C 16,2 C 68 % 0 lf 1016,0 hPa 0,0 l/m 0,00 h 0,00 h 114 W/m 18,5 km/h (3 Bft) 95,11 %
24.09.2015 17:00 17,3 C 17,5 C 15,5 C 71 % 0 lf 1016,3 hPa 0,0 l/m 0,00 h 0,00 h 54 W/m 16,1 km/h (3 Bft) 95,44 %
24.09.2015 18:00 16,8 C 16,9 C 15,0 C 72 % 0 lf 1016,7 hPa 0,0 l/m 0,00 h 0,00 h 28 W/m 17,3 km/h (3 Bft) 98,29 %
24.09.2015 19:00 16,0 C 15,6 C 13,9 C 77 % 0 lf 1017,2 hPa 0,0 l/m 0,00 h 0,03 h 8 W/m 21,8 km/h (4 Bft) 94,97 %
24.09.2015 20:00 15,0 C 15,0 C 13,3 C 83 % 0 lf 1017,5 hPa 0,0 l/m 0,00 h 0,00 h 0 W/m 13,7 km/h (3 Bft) 96,16 %
24.09.2015 21:00 14,8 C 14,4 C 12,9 C 87 % 2 lf 1018,1 hPa 0,0 l/m 0,00 h 0,20 h 0 W/m 13,5 km/h (3 Bft) 96,44 %
24.09.2015 22:00 14,2 C 13,0 C 12,1 C 91 % 15 lf 1018,5 hPa 0,2 l/m 0,00 h 0,33 h 0 W/m 6,7 km/h (2 Bft) 96,87 %
24.09.2015 23:00 13,5 C 12,8 C 11,7 C 94 % 15 lf 1018,7 hPa 0,0 l/m 0,00 h 0,00 h 0 W/m 6,4 km/h (2 Bft) 96,00 %
25.09.2015 00:00 12,9 C 11,8 C 10,5 C 94 % 15 lf 1019,1 hPa 0,0 l/m 0,00 h 0,00 h 0 W/m 2,9 km/h (1 Bft) 95,64 %
25.09.2015 01:00 12,1 C 11,4 C 10,0 C 94 % 15 lf 1019,2 hPa 0,0 l/m 0,00 h 0,00 h 0 W/m 8,4 km/h (2 Bft) 96,29 %
25.09.2015 02:00 11,7 C 11,5 C 10,1 C 95 % 15 lf 1019,1 hPa 0,0 l/m 0,00 h 0,07 h 0 W/m 11,3 km/h (2 Bft) 98,08 %
25.09.2015 03:00 11,4 C 11,0 C 9,8 C 96 % 15 lf 1019,0 hPa 0,0 l/m 0,00 h 0,00 h 0 W/m 10,5 km/h (2 Bft) 95,51 %
25.09.2015 04:00 11,1 C 10,6 C 9,4 C 96 % 15 lf 1019,0 hPa 0,0 l/m 0,00 h 0,00 h 0 W/m 9,5 km/h (2 Bft) 95,37 %
25.09.2015 05:00 10,9 C 10,7 C 9,6 C 97 % 15 lf 1019,2 hPa 0,2 l/m 0,00 h 0,00 h 0 W/m 9,2 km/h (2 Bft) 97,79 %
25.09.2015 06:00 11,0 C 11,0 C 9,8 C 97 % 15 lf 1019,5 hPa 0,0 l/m 0,00 h 0,00 h 0 W/m 9,2 km/h (2 Bft) 96,44 %
25.09.2015 07:00 11,1 C 10,6 C 9,6 C 97 % 15 lf 1019,9 hPa 0,0 l/m 0,03 h 0,00 h 17 W/m 7,4 km/h (2 Bft) 95,94 %
25.09.2015 08:00 11,0 C 12,3 C 9,9 C 97 % 15 lf 1020,4 hPa 0,0 l/m 0,63 h 0,00 h 103 W/m 13,1 km/h (3 Bft) 95,80 %
25.09.2015 09:00 12,2 C 15,6 C 11,8 C 98 % 4 lf 1020,9 hPa 0,0 l/m 0,50 h 0,00 h 173 W/m 10,7 km/h (2 Bft) 96,94 %
25.09.2015 10:00 13,1 C 15,5 C 13,0 C 97 % 0 lf 1021,4 hPa 0,0 l/m 0,00 h 0,00 h 200 W/m 11,4 km/h (2 Bft) 95,66 %
25.09.2015 11:00 14,5 C 17,9 C 15,0 C 93 % 0 lf 1021,6 hPa 0,0 l/m 0,70 h 0,00 h 293 W/m 12,3 km/h (3 Bft) 96,29 %
25.09.2015 12:00 16,0 C 18,9 C 16,3 C 85 % 0 lf 1021,5 hPa 0,0 l/m 0,60 h 0,00 h 298 W/m 12,4 km/h (3 Bft) 96,21 %
25.09.2015 13:00 16,0 C 16,9 C 14,9 C 83 % 0 lf 1021,5 hPa 0,0 l/m 0,00 h 0,10 h 146 W/m 11,7 km/h (2 Bft) 96,58 %
25.09.2015 14:00 15,9 C 21,3 C 15,4 C 84 % 1 lf 1021,6 hPa 0,0 l/m 0,57 h 0,13 h 414 W/m 10,3 km/h (2 Bft) 96,15 %
25.09.2015 15:00 17,7 C 22,7 C 16,6 C 74 % 0 lf 1021,6 hPa 0,0 l/m 0,80 h 0,00 h 360 W/m 13,3 km/h (3 Bft) 96,23 %
25.09.2015 16:00 17,9 C 24,2 C 15,5 C 69 % 0 lf 1021,6 hPa 0,0 l/m 0,87 h 0,00 h 354 W/m 12,0 km/h (2 Bft) 97,87 %
25.09.2015 17:00 17,7 C 20,0 C 14,8 C 67 % 0 lf 1021,7 hPa 0,0 l/m 0,60 h 0,00 h 165 W/m 16,1 km/h (3 Bft) 96,09 %
25.09.2015 18:00 15,7 C 14,9 C 12,9 C 74 % 0 lf 1022,2 hPa 0,0 l/m 0,00 h 0,00 h 39 W/m 4,6 km/h (1 Bft) 94,48 %
25.09.2015 19:00 14,6 C 13,5 C 12,1 C 80 % 0 lf 1022,7 hPa 0,0 l/m 0,00 h 0,00 h 9 W/m 0,0 km/h (0 Bft) 97,65 %
25.09.2015 20:00 13,4 C 12,1 C 10,9 C 82 % 0 lf 1023,3 hPa 0,0 l/m 0,00 h 0,00 h 0 W/m 1,8 km/h (1 Bft) 98,15 %
25.09.2015 21:00 12,4 C 11,3 C 10,2 C 84 % 0 lf 1023,9 hPa 0,0 l/m 0,00 h 0,00 h 0 W/m 1,3 km/h (1 Bft) 94,59 %
25.09.2015 22:00 11,8 C 11,1 C 10,0 C 87 % 0 lf 1024,1 hPa 0,0 l/m 0,00 h 0,00 h 0 W/m 0,0 km/h (0 Bft) 96,51 %
25.09.2015 23:00 11,4 C 10,6 C 10,0 C 88 % 0 lf 1024,4 hPa 0,0 l/m 0,00 h 0,00 h 0 W/m 0,0 km/h (0 Bft) 96,72 %
26.09.2015 00:00 11,2 C 10,6 C 9,9 C 89 % 0 lf 1024,6 hPa 0,0 l/m 0,00 h 0,00 h 0 W/m 1,5 km/h (1 Bft) 96,73 %
26.09.2015 01:00 11,0 C 10,2 C 9,3 C 90 % 0 lf 1024,6 hPa 0,0 l/m 0,00 h 0,00 h 0 W/m 2,7 km/h (1 Bft) 95,94 %
26.09.2015 02:00 10,4 C 9,0 C 8,3 C 91 % 4 lf 1024,7 hPa 0,0 l/m 0,00 h 0,00 h 0 W/m 1,5 km/h (1 Bft) 94,24 %
26.09.2015 03:00 9,7 C 8,5 C 7,9 C 92 % 14 lf 1024,9 hPa 0,0 l/m 0,00 h 0,00 h 0 W/m 2,0 km/h (1 Bft) 96,72 %
26.09.2015 04:00 9,1 C 8,0 C 7,6 C 92 % 15 lf 1025,0 hPa 0,0 l/m 0,00 h 0,00 h 0 W/m 2,6 km/h (1 Bft) 96,94 %
26.09.2015 05:00 8,7 C 7,9 C 7,4 C 93 % 15 lf 1025,1 hPa 0,0 l/m 0,00 h 0,00 h 0 W/m 4,0 km/h (1 Bft) 96,93 %
26.09.2015 06:00 8,3 C 6,9 C 6,5 C 93 % 15 lf 1025,3 hPa 0,0 l/m 0,00 h 0,00 h 0 W/m 3,3 km/h (1 Bft) 93,85 %
26.09.2015 07:00 7,6 C 6,3 C 6,1 C 94 % 15 lf 1025,8 hPa 0,0 l/m 0,00 h 0,00 h 15 W/m 2,2 km/h (1 Bft) 96,79 %
26.09.2015 08:00 7,5 C 8,8 C 7,1 C 94 % 15 lf 1026,1 hPa 0,0 l/m 0,93 h 0,00 h 104 W/m 3,3 km/h (1 Bft) 97,01 %
26.09.2015 09:00 10,0 C 20,6 C 12,1 C 97 % 13 lf 1026,4 hPa 0,0 l/m 1,00 h 0,00 h 262 W/m 7,3 km/h (2 Bft) 97,22 %
26.09.2015 10:00 12,7 C 24,5 C 16,5 C 95 % 0 lf 1026,7 hPa 0,0 l/m 1,00 h 0,00 h 412 W/m 11,3 km/h (2 Bft) 93,10 %
26.09.2015 11:00 14,5 C 21,0 C 16,0 C 84 % 0 lf 1026,8 hPa 0,0 l/m 0,63 h 0,00 h 366 W/m 14,2 km/h (3 Bft) 97,79 %
26.09.2015 12:00 14,8 C 17,4 C 14,2 C 79 % 0 lf 1026,9 hPa 0,0 l/m 0,07 h 0,00 h 213 W/m 15,3 km/h (3 Bft) 96,73 %
26.09.2015 13:00 15,6 C 23,2 C 15,2 C 74 % 0 lf 1026,8 hPa 0,0 l/m 0,77 h 0,00 h 522 W/m 17,2 km/h (3 Bft) 94,38 %
26.09.2015 14:00 17,1 C 25,0 C 15,9 C 65 % 0 lf 1026,7 hPa 0,0 l/m 1,00 h 0,00 h 630 W/m 20,9 km/h (4 Bft) 98,22 %
26.09.2015 15:00 17,3 C 24,3 C 15,6 C 62 % 0 lf 1026,7 hPa 0,0 l/m 1,00 h 0,00 h 506 W/m 21,1 km/h (4 Bft) 95,30 %
26.09.2015 16:00 17,4 C 24,2 C 15,5 C 63 % 0 lf 1026,7 hPa 0,0 l/m 1,00 h 0,00 h 399 W/m 18,1 km/h (3 Bft) 96,08 %
26.09.2015 17:00 17,2 C 21,7 C 15,0 C 62 % 0 lf 1026,7 hPa 0,0 l/m 1,00 h 0,00 h 223 W/m 15,9 km/h (3 Bft) 96,08 %
26.09.2015 18:00 16,5 C 17,5 C 14,0 C 66 % 0 lf 1026,8 hPa 0,0 l/m 0,37 h 0,00 h 69 W/m 9,4 km/h (2 Bft) 96,47 %
26.09.2015 19:00 14,9 C 12,6 C 11,0 C 72 % 0 lf 1027,1 hPa 0,0 l/m 0,00 h 0,00 h 11 W/m 3,8 km/h (1 Bft) 97,22 %
26.09.2015 20:00 12,4 C 9,8 C 8,9 C 81 % 0 lf 1027,7 hPa 0,0 l/m 0,00 h 0,00 h 0 W/m 0,8 km/h (0 Bft) 94,45 %
26.09.2015 21:00 10,7 C 8,8 C 8,0 C 84 % 1 lf 1028,2 hPa 0,0 l/m 0,00 h 0,00 h 0 W/m 3,9 km/h (1 Bft) 98,47 %
26.09.2015 22:00 9,6 C 8,1 C 7,5 C 86 % 2 lf 1028,6 hPa 0,0 l/m 0,00 h 0,00 h 0 W/m 0,0 km/h (0 Bft) 96,65 %
26.09.2015 23:00 8,9 C 7,3 C 6,9 C 88 % 9 lf 1028,7 hPa 0,0 l/m 0,00 h 0,00 h 0 W/m 0,0 km/h (0 Bft) 93,95 %
27.09.2015 00:00 8,2 C 6,7 C 6,4 C 89 % 15 lf 1029,1 hPa 0,0 l/m 0,00 h 0,00 h 0 W/m 0,0 km/h (0 Bft) 96,82 %
27.09.2015 01:00 7,6 C 6,3 C 6,0 C 91 % 15 lf 1029,3 hPa 0,0 l/m 0,00 h 0,00 h 0 W/m 1,7 km/h (1 Bft) 96,44 %
27.09.2015 02:00 7,3 C 6,0 C 5,6 C 92 % 15 lf 1029,5 hPa 0,0 l/m 0,00 h 0,00 h 0 W/m 2,2 km/h (1 Bft) 96,73 %
27.09.2015 03:00 6,9 C 5,6 C 5,3 C 92 % 15 lf 1029,6 hPa 0,0 l/m 0,00 h 0,00 h 0 W/m 2,4 km/h (1 Bft) 96,01 %
27.09.2015 04:00 6,6 C 5,2 C 5,0 C 92 % 15 lf 1029,8 hPa 0,0 l/m 0,00 h 0,00 h 0 W/m 1,2 km/h (1 Bft) 96,11 %
27.09.2015 05:00 6,2 C 4,9 C 4,6 C 93 % 15 lf 1030,0 hPa 0,0 l/m 0,00 h 0,00 h 0 W/m 0,0 km/h (0 Bft) 96,44 %
27.09.2015 06:00 5,8 C 4,4 C 4,4 C 93 % 15 lf 1030,3 hPa 0,0 l/m 0,00 h 0,00 h 0 W/m 0,0 km/h (0 Bft) 96,83 %
27.09.2015 07:00 5,5 C 4,4 C 4,1 C 93 % 15 lf 1030,8 hPa 0,0 l/m 0,00 h 0,00 h 15 W/m 0,1 km/h (0 Bft) 97,08 %
27.09.2015 08:00 5,4 C 6,9 C 5,2 C 94 % 15 lf 1031,4 hPa 0,0 l/m 0,87 h 0,00 h 101 W/m 3,3 km/h (1 Bft) 96,23 %
27.09.2015 09:00 8,1 C 19,1 C 10,5 C 97 % 15 lf 1031,9 hPa 0,0 l/m 1,00 h 0,00 h 261 W/m 4,5 km/h (1 Bft) 94,80 %
27.09.2015 10:00 12,2 C 23,3 C 17,7 C 97 % 11 lf 1032,3 hPa 0,0 l/m 1,00 h 0,00 h 421 W/m 14,6 km/h (3 Bft) 99,00 %
27.09.2015 11:00 15,8 C 23,4 C 20,8 C 79 % 0 lf 1032,5 hPa 0,0 l/m 1,00 h 0,00 h 535 W/m 20,8 km/h (4 Bft) 95,23 %
27.09.2015 12:00 17,3 C 25,3 C 20,0 C 65 % 0 lf 1032,7 hPa 0,0 l/m 0,97 h 0,00 h 610 W/m 27,9 km/h (4 Bft) 95,10 %
27.09.2015 13:00 18,1 C 24,9 C 16,2 C 61 % 0 lf 1032,6 hPa 0,0 l/m 0,93 h 0,00 h 596 W/m 26,0 km/h (4 Bft) 99,01 %
27.09.2015 14:00 18,4 C 24,3 C 16,4 C 58 % 0 lf 1032,6 hPa 0,0 l/m 0,93 h 0,00 h 569 W/m 25,7 km/h (4 Bft) 94,08 %
27.09.2015 15:00 18,8 C 24,8 C 16,3 C 57 % 0 lf 1032,4 hPa 0,0 l/m 1,00 h 0,00 h 520 W/m 25,7 km/h (4 Bft) 97,37 %
27.09.2015 16:00 18,6 C 23,9 C 15,9 C 57 % 0 lf 1032,5 hPa 0,0 l/m 0,93 h 0,00 h 385 W/m 20,8 km/h (4 Bft) 96,16 %
27.09.2015 17:00 17,7 C 19,4 C 15,0 C 60 % 0 lf 1032,7 hPa 0,0 l/m 0,47 h 0,00 h 146 W/m 19,9 km/h (4 Bft) 95,37 %
27.09.2015 18:00 16,2 C 16,4 C 13,7 C 66 % 0 lf 1032,9 hPa 0,0 l/m 0,20 h 0,00 h 52 W/m 13,4 km/h (3 Bft) 98,75 %
27.09.2015 19:00 14,7 C 13,2 C 11,5 C 72 % 0 lf 1033,2 hPa 0,0 l/m 0,00 h 0,00 h 11 W/m 8,2 km/h (2 Bft) 94,87 %
27.09.2015 20:00 12,9 C 10,7 C 9,3 C 76 % 0 lf 1034,0 hPa 0,0 l/m 0,00 h 0,00 h 0 W/m 4,7 km/h (1 Bft) 96,58 %
27.09.2015 21:00 11,0 C 8,8 C 8,0 C 82 % 0 lf 1034,4 hPa 0,0 l/m 0,00 h 0,00 h 0 W/m 2,9 km/h (1 Bft) 95,80 %
27.09.2015 22:00 9,6 C 8,1 C 7,3 C 86 % 1 lf 1034,7 hPa 0,0 l/m 0,00 h 0,00 h 0 W/m 4,3 km/h (1 Bft) 95,87 %
27.09.2015 23:00 8,8 C 7,4 C 6,8 C 88 % 5 lf 1034,9 hPa 0,0 l/m 0,00 h 0,00 h 0 W/m 0,6 km/h (0 Bft) 97,44 %
Min-Datum _ 27.09.15 27.09.15 27.09.15 27.09.15 21.09.15 22.09.15 - - - - 21.09.15 21.09.15
_ Min-Zeit 08:04 05:52 07:12 14:56 00:00 18:14 - - - - 20:00 00:02
Minimum _ 5,2 C 4,4 C 3,9 C 55 % 0 lf 998,2 hPa - - - - 0,0 km/h (0 Bft) 10,53 %
Max-Datum _ 21.09.15 21.09.15 21.09.15 23.09.15 21.09.15 27.09.15 23.09.15 21.09.15 21.09.15 25.09.15 27.09.15 21.09.15
_ Max-Zeit 13:06 12:26 11:12 08:46 23:56 23:56 02:58 07:52 23:36 14:38 12:46 01:10
Maximum _ 20,1 C 29,4 C 22,2 C 99 % 15 lf 1035,1 hPa 2,4 l/m 0,03 h 0,03 h 816 W/m 43,9 km/h
O (6 Bft)
100,00 %
Durchschnitt _ 13,0 C 14,1 C 11,8 C 87 % 6 lf 1017,2 hPa #15,8 l/m #38:42 h #14:05 h 219 W/m 11,1 km/h (2 Bft) 96,25 %
© 2015 W. Hausmann